createdAt,value
2023-01-25T00:01:24.838Z,102289.38
2023-01-25T00:03:53.925Z,102294.66
2023-01-25T00:06:22.549Z,102300.03
2023-01-25T00:08:51.328Z,102293.13
2023-01-25T00:11:20.470Z,102282.69
2023-01-25T00:13:49.044Z,102279.06
2023-01-25T00:16:18.932Z,102278.09
2023-01-25T00:18:47.575Z,102274.75
2023-01-25T00:21:17.410Z,102280.16
2023-01-25T00:23:46.162Z,102276.88
2023-01-25T00:26:14.750Z,102284.06
2023-01-25T00:28:43.642Z,102277.97
2023-01-25T00:31:27.618Z,102274.41
2023-01-25T00:34:02.949Z,102263.97
2023-01-25T00:36:42.657Z,102267.63
2023-01-25T00:39:14.688Z,102240.09
2023-01-25T00:41:44.217Z,102266.88
2023-01-25T00:44:12.831Z,102268.59
2023-01-25T00:46:42.815Z,102257.16
2023-01-25T00:49:21.943Z,102262.50
2023-01-25T00:51:50.894Z,102263.41
2023-01-25T00:54:20.365Z,102272.16
2023-01-25T00:56:48.981Z,102272.22
2023-01-25T00:59:17.852Z,102263.53
2023-01-25T01:01:47.927Z,102269.56
2023-01-25T01:04:17.138Z,102265.94
2023-01-25T01:06:45.962Z,102259.75
2023-01-25T01:09:17.797Z,102254.31
2023-01-25T01:11:46.579Z,102252.63
2023-01-25T01:14:15.730Z,102250.09
2023-01-25T01:16:44.476Z,102252.00
2023-01-25T01:19:14.879Z,102256.47
2023-01-25T01:21:43.592Z,102260.91
2023-01-25T01:24:12.837Z,102264.50
2023-01-25T01:26:41.365Z,102262.72
2023-01-25T01:29:10.040Z,102268.06
2023-01-25T01:31:39.050Z,102266.28
2023-01-25T01:34:21.420Z,102259.13
2023-01-25T01:36:49.949Z,102266.13
2023-01-25T01:39:18.879Z,102267.91
2023-01-25T01:41:47.583Z,102278.53
2023-01-25T01:44:19.014Z,102278.47
2023-01-25T01:46:56.265Z,102275.00
2023-01-25T01:49:33.316Z,102255.94
2023-01-25T01:52:18.034Z,102268.00
2023-01-25T01:54:50.892Z,102269.63
2023-01-25T01:57:23.575Z,102266.19
2023-01-25T01:59:57.198Z,102273.19
2023-01-25T02:02:27.795Z,102226.63
2023-01-25T02:05:02.281Z,102267.84
2023-01-25T02:07:35.290Z,102262.56
2023-01-25T02:10:06.588Z,102274.03
2023-01-25T02:12:36.072Z,102259.13
2023-01-25T02:15:05.370Z,102266.22
2023-01-25T02:17:36.947Z,102271.47
2023-01-25T02:20:14.280Z,102270.66
2023-01-25T02:22:54.953Z,102271.75
2023-01-25T02:25:24.956Z,102263.94
2023-01-25T02:27:57.653Z,102270.88
2023-01-25T02:30:27.691Z,102261.28
2023-01-25T02:32:56.220Z,102268.47
2023-01-25T02:35:37.442Z,102269.16
2023-01-25T02:38:07.987Z,102270.94
2023-01-25T02:40:45.871Z,102265.53
2023-01-25T02:43:15.913Z,102258.41
2023-01-25T02:45:46.679Z,102259.28
2023-01-25T02:48:15.174Z,102254.91
2023-01-25T02:50:43.670Z,102254.69
2023-01-25T02:53:13.409Z,102255.63
2023-01-25T02:55:43.328Z,102248.56
2023-01-25T02:58:11.824Z,102251.25
2023-01-25T03:00:41.943Z,102232.31
2023-01-25T03:03:10.488Z,102244.34
2023-01-25T03:05:39.058Z,102246.13
2023-01-25T03:08:07.630Z,102241.94
2023-01-25T03:10:36.281Z,102233.47
2023-01-25T03:13:06.373Z,102241.09
2023-01-25T03:15:35.085Z,102235.69
2023-01-25T03:18:04.572Z,102230.34
2023-01-25T03:20:33.307Z,102218.13
2023-01-25T03:23:01.880Z,102213.00
2023-01-25T03:25:30.404Z,102221.69
2023-01-25T03:28:11.988Z,102210.19
2023-01-25T03:30:41.339Z,102205.56
2023-01-25T03:33:10.068Z,102211.56
2023-01-25T03:35:38.725Z,102199.97
2023-01-25T03:38:07.226Z,102199.81
2023-01-25T03:40:35.875Z,102201.50
2023-01-25T03:43:04.456Z,102200.63
2023-01-25T03:45:34.443Z,102203.38
2023-01-25T03:48:03.324Z,102203.38
2023-01-25T03:50:31.999Z,102199.00
2023-01-25T03:53:18.176Z,102190.34
2023-01-25T03:55:50.388Z,102186.03
2023-01-25T03:58:21.412Z,102177.19
2023-01-25T04:00:51.515Z,102192.00
2023-01-25T04:03:21.737Z,102188.44
2023-01-25T04:05:51.041Z,102192.00
2023-01-25T04:08:20.133Z,102190.44
2023-01-25T04:10:53.852Z,102201.06
2023-01-25T04:13:23.592Z,102191.50
2023-01-25T04:15:56.008Z,102204.56
2023-01-25T04:18:44.387Z,102199.47
2023-01-25T04:21:13.062Z,102205.56
2023-01-25T04:23:41.704Z,102204.63
2023-01-25T04:26:17.444Z,102194.25
2023-01-25T04:28:52.748Z,102191.66
2023-01-25T04:31:22.809Z,102200.50
2023-01-25T04:33:51.774Z,102192.81
2023-01-25T04:36:21.797Z,102191.22
2023-01-25T04:38:50.326Z,102202.72
2023-01-25T04:41:18.904Z,102188.59
2023-01-25T04:43:47.637Z,102202.44
2023-01-25T04:46:17.493Z,102197.16
2023-01-25T04:48:47.799Z,102196.25
2023-01-25T04:51:18.677Z,102189.19
2023-01-25T04:53:47.369Z,102192.63
2023-01-25T04:56:16.084Z,102180.47
2023-01-25T04:58:50.311Z,102179.06
2023-01-25T05:01:22.905Z,102184.75
2023-01-25T05:03:58.052Z,102178.81
2023-01-25T05:06:35.262Z,102170.31
2023-01-25T05:09:04.102Z,102180.81
2023-01-25T05:11:34.543Z,102172.19
2023-01-25T05:14:09.441Z,102174.94
2023-01-25T05:16:38.231Z,102174.09
2023-01-25T05:19:10.657Z,102172.31
2023-01-25T05:21:59.905Z,102165.38
2023-01-25T05:24:42.850Z,102168.06
2023-01-25T05:27:14.335Z,102173.38
2023-01-25T05:29:52.062Z,102175.22
2023-01-25T05:32:24.391Z,102170.06
2023-01-25T05:34:55.300Z,102175.44
2023-01-25T05:37:24.387Z,102174.69
2023-01-25T05:40:04.166Z,102171.28
2023-01-25T05:42:37.581Z,102173.91
2023-01-25T05:45:11.011Z,102170.22
2023-01-25T05:47:41.412Z,102172.94
2023-01-25T05:50:12.668Z,102178.81
2023-01-25T05:53:10.731Z,102182.28
2023-01-25T05:55:40.940Z,102183.28
2023-01-25T05:58:14.198Z,102173.78
2023-01-25T06:00:42.886Z,102168.63
2023-01-25T06:03:16.841Z,102173.09
2023-01-25T06:05:47.356Z,102171.53
2023-01-25T06:08:15.771Z,102176.13
2023-01-25T06:10:48.350Z,102172.78
2023-01-25T06:13:16.895Z,102174.66
2023-01-25T06:15:52.825Z,102165.13
2023-01-25T06:18:47.133Z,102143.19
2023-01-25T06:21:37.202Z,102164.41
2023-01-25T06:24:06.104Z,102161.63
2023-01-25T06:26:34.599Z,102154.47
2023-01-25T06:29:03.086Z,102153.66
2023-01-25T06:31:31.578Z,102154.59
2023-01-25T06:34:04.559Z,102157.16
2023-01-25T06:36:35.234Z,102159.75
2023-01-25T06:39:04.071Z,102157.16
2023-01-25T06:41:32.544Z,102139.13
2023-01-25T06:44:01.073Z,102155.50
2023-01-25T06:46:29.611Z,102142.09
2023-01-25T06:48:58.164Z,102147.16
2023-01-25T06:51:26.636Z,102141.72
2023-01-25T06:53:56.670Z,102150.50
2023-01-25T06:56:26.140Z,102141.78
2023-01-25T06:58:54.719Z,102138.22
2023-01-25T07:01:27.564Z,102129.50
2023-01-25T07:03:58.810Z,102133.06
2023-01-25T07:06:32.317Z,102118.47
2023-01-25T07:09:05.580Z,102133.91
2023-01-25T07:11:34.202Z,102142.63
2023-01-25T07:14:02.737Z,102138.16
2023-01-25T07:16:36.772Z,102137.31
2023-01-25T07:19:05.661Z,102140.16
2023-01-25T07:21:34.480Z,102130.84
2023-01-25T07:24:06.430Z,102141.03
2023-01-25T07:26:36.090Z,102139.34
2023-01-25T07:29:04.622Z,102149.44
2023-01-25T07:31:33.340Z,102141.34
2023-01-25T07:34:01.807Z,102145.66
2023-01-25T07:36:30.392Z,102144.84
2023-01-25T07:38:59.763Z,102149.09
2023-01-25T07:41:29.677Z,102144.41
2023-01-25T07:43:58.118Z,102154.59
2023-01-25T07:46:40.033Z,102147.97
2023-01-25T07:49:08.527Z,102153.13
2023-01-25T07:51:36.934Z,102149.53
2023-01-25T07:54:06.900Z,102146.66
2023-01-25T07:56:40.728Z,102143.97
2023-01-25T07:59:10.960Z,102146.66
2023-01-25T08:01:41.301Z,102147.53
2023-01-25T08:04:10.504Z,102140.66
2023-01-25T08:06:40.169Z,102145.56
2023-01-25T08:09:10.940Z,102097.69
2023-01-25T08:11:41.329Z,102146.31
2023-01-25T08:14:09.849Z,102130.31
2023-01-25T08:16:38.703Z,102125.63
2023-01-25T08:19:07.606Z,102114.09
2023-01-25T08:21:36.503Z,102125.03
2023-01-25T08:24:07.695Z,102122.88
2023-01-25T08:26:37.082Z,102128.91
2023-01-25T08:29:07.724Z,102122.78
2023-01-25T08:31:37.286Z,102123.66
2023-01-25T08:34:07.047Z,102121.47
2023-01-25T08:36:35.828Z,102123.22
2023-01-25T08:39:06.894Z,102113.72
2023-01-25T08:41:37.160Z,102109.03
2023-01-25T08:44:07.397Z,102111.25
2023-01-25T08:46:36.134Z,102108.97
2023-01-25T08:49:05.695Z,102110.00
2023-01-25T08:51:34.861Z,102116.50
2023-01-25T08:54:04.930Z,102101.66
2023-01-25T08:56:34.939Z,102104.22
2023-01-25T08:59:03.541Z,102116.00
2023-01-25T09:01:33.879Z,102105.84
2023-01-25T09:04:04.486Z,102111.03
2023-01-25T09:06:35.053Z,102098.72
2023-01-25T09:09:04.884Z,102099.56
2023-01-25T09:11:37.294Z,102094.91
2023-01-25T09:14:06.227Z,102093.66
2023-01-25T09:16:36.181Z,102080.38
2023-01-25T09:19:06.797Z,102051.78
2023-01-25T09:21:37.247Z,102073.41
2023-01-25T09:24:08.340Z,102070.09
2023-01-25T09:26:40.016Z,102082.19
2023-01-25T09:29:09.334Z,102076.09
2023-01-25T09:31:44.099Z,102079.44
2023-01-25T09:34:26.041Z,102077.22
2023-01-25T09:36:54.627Z,102084.31
2023-01-25T09:39:23.179Z,102083.81
2023-01-25T09:42:22.536Z,102083.44
2023-01-25T09:45:14.500Z,101985.22
2023-01-25T09:47:49.036Z,102080.53
2023-01-25T09:50:34.437Z,102083.53
2023-01-25T09:53:32.604Z,102088.84
2023-01-25T09:56:05.016Z,102089.03
2023-01-25T09:58:37.100Z,102067.28
2023-01-25T10:01:29.664Z,102090.22
2023-01-25T10:04:16.614Z,102084.72
2023-01-25T10:06:58.955Z,102086.53
2023-01-25T10:09:43.935Z,102070.06
2023-01-25T10:12:20.612Z,101928.81
2023-01-25T10:14:50.015Z,102066.47
2023-01-25T10:17:31.348Z,102064.50
2023-01-25T10:20:16.610Z,102069.13
2023-01-25T10:22:51.528Z,102072.03
2023-01-25T10:25:34.507Z,102060.56
2023-01-25T10:28:16.641Z,102050.69
2023-01-25T10:30:54.841Z,102052.59
2023-01-25T10:33:23.602Z,102046.25
2023-01-25T10:35:53.929Z,102037.81
2023-01-25T10:38:30.790Z,102030.63
2023-01-25T10:41:03.750Z,102011.00
2023-01-25T10:43:33.362Z,102027.69
2023-01-25T10:46:03.288Z,102016.03
2023-01-25T10:48:44.742Z,102014.41
2023-01-25T10:51:35.540Z,101917.97
2023-01-25T10:54:05.381Z,102001.81
2023-01-25T10:56:35.853Z,102004.53
2023-01-25T10:59:10.572Z,102001.84
2023-01-25T11:01:39.637Z,102003.38
2023-01-25T11:04:25.903Z,102000.44
2023-01-25T11:06:55.814Z,102002.63
2023-01-25T11:09:36.538Z,101973.16
2023-01-25T11:12:07.543Z,101977.44
2023-01-25T11:14:36.042Z,101971.34
2023-01-25T11:17:07.492Z,101963.41
2023-01-25T11:19:37.615Z,101956.38
2023-01-25T11:22:22.159Z,101920.22
2023-01-25T11:24:50.852Z,101947.91
2023-01-25T11:27:21.669Z,101942.94
2023-01-25T11:30:10.547Z,101934.13
2023-01-25T11:32:41.256Z,101939.13
2023-01-25T11:35:15.322Z,101942.53
2023-01-25T11:38:03.705Z,101940.97
2023-01-25T11:40:40.209Z,101925.31
2023-01-25T11:43:21.461Z,101917.88
2023-01-25T11:46:14.376Z,101911.25
2023-01-25T11:49:04.634Z,101900.28
2023-01-25T11:51:37.645Z,101901.78
2023-01-25T11:54:32.847Z,101890.47
2023-01-25T11:57:09.973Z,101876.81
2023-01-25T11:59:55.035Z,101876.41
2023-01-25T12:02:55.560Z,101865.94
2023-01-25T12:05:34.940Z,101862.88
2023-01-25T12:08:19.304Z,101859.78
2023-01-25T12:10:58.227Z,101844.06
2023-01-25T12:13:35.440Z,101839.59
2023-01-25T12:16:20.872Z,101836.19
2023-01-25T12:19:07.180Z,101814.19
2023-01-25T12:21:50.389Z,101813.78
2023-01-25T12:24:37.744Z,101813.56
2023-01-25T12:27:19.680Z,101792.75
2023-01-25T12:29:52.284Z,101800.22
2023-01-25T12:32:26.818Z,101791.00
2023-01-25T12:35:22.348Z,101787.38
2023-01-25T12:37:54.304Z,101779.63
2023-01-25T12:40:31.333Z,101778.97
2023-01-25T12:43:01.796Z,101783.38
2023-01-25T12:45:34.600Z,101781.97
2023-01-25T12:48:11.394Z,101772.75
2023-01-25T12:50:43.240Z,101763.16
2023-01-25T12:53:19.383Z,101736.81
2023-01-25T12:55:49.013Z,101770.72
2023-01-25T12:58:37.050Z,101758.47
2023-01-25T13:01:13.886Z,101762.09
2023-01-25T13:03:58.125Z,101761.88
2023-01-25T13:06:40.151Z,101753.13
2023-01-25T13:09:15.438Z,101748.88
2023-01-25T13:11:46.565Z,101748.56
2023-01-25T13:14:29.739Z,101746.84
2023-01-25T13:17:22.632Z,101736.94
2023-01-25T13:19:53.604Z,101740.91
2023-01-25T13:22:58.893Z,101731.91
2023-01-25T13:25:28.115Z,101732.22
2023-01-25T13:28:34.890Z,101725.41
2023-01-25T13:31:05.038Z,101722.19
2023-01-25T13:33:35.896Z,101732.75
2023-01-25T13:36:43.820Z,101727.09
2023-01-25T13:39:43.376Z,101727.09
2023-01-25T13:42:26.161Z,101727.31
2023-01-25T13:44:57.233Z,101683.56
2023-01-25T13:47:30.771Z,101731.63
2023-01-25T13:50:03.793Z,101697.22
2023-01-25T13:52:32.526Z,101731.19
2023-01-25T13:55:01.260Z,101726.59
2023-01-25T13:57:31.721Z,101724.91
2023-01-25T14:00:10.128Z,101721.06
2023-01-25T14:02:42.665Z,101716.91
2023-01-25T14:05:20.808Z,101717.22
2023-01-25T14:07:51.882Z,101713.38
2023-01-25T14:10:24.349Z,101709.97
2023-01-25T14:12:54.464Z,101715.09
2023-01-25T14:15:25.843Z,101698.25
2023-01-25T14:18:19.177Z,101694.47
2023-01-25T14:20:49.374Z,101698.00
2023-01-25T14:23:26.489Z,101699.50
2023-01-25T14:25:56.147Z,101694.16
2023-01-25T14:28:24.715Z,101703.13
2023-01-25T14:30:55.032Z,101698.63
2023-01-25T14:33:28.837Z,101693.31
2023-01-25T14:36:11.902Z,101694.16
2023-01-25T14:38:51.546Z,101689.50
2023-01-25T14:41:22.983Z,101697.19
2023-01-25T14:43:54.179Z,101698.56
2023-01-25T14:46:25.336Z,101701.78
2023-01-25T14:49:08.491Z,101697.84
2023-01-25T14:51:42.675Z,101712.34
2023-01-25T14:54:19.145Z,101697.41
2023-01-25T14:56:50.109Z,101669.81
2023-01-25T14:59:30.896Z,101705.84
2023-01-25T15:02:02.981Z,101702.97
2023-01-25T15:04:35.415Z,101702.72
2023-01-25T15:07:16.810Z,101701.47
2023-01-25T15:10:03.685Z,101696.03
2023-01-25T15:12:34.161Z,101692.75
2023-01-25T15:15:02.957Z,101690.50
2023-01-25T15:17:40.968Z,101689.53
2023-01-25T15:23:15.591Z,101680.91
2023-01-25T15:25:52.158Z,101681.84
2023-01-25T15:28:20.738Z,101688.13
2023-01-25T15:30:49.478Z,101687.06
2023-01-25T15:33:22.272Z,101687.06
2023-01-25T15:35:51.731Z,101688.03
2023-01-25T15:38:22.122Z,101694.22
2023-01-25T15:40:50.810Z,101703.56
2023-01-25T15:43:21.143Z,101712.63
2023-01-25T15:45:52.017Z,101705.81
2023-01-25T15:48:27.137Z,101710.19
2023-01-25T15:50:56.743Z,101703.34
2023-01-25T15:53:26.899Z,101677.09
2023-01-25T15:55:59.334Z,101712.84
2023-01-25T15:58:30.474Z,101701.13
2023-01-25T16:01:00.370Z,101694.31
2023-01-25T16:03:29.249Z,101708.38
2023-01-25T16:06:00.016Z,101559.00
2023-01-25T16:08:30.103Z,101699.91
2023-01-25T16:10:58.708Z,101688.91
2023-01-25T16:13:27.274Z,101691.47
2023-01-25T16:15:58.030Z,101690.84
2023-01-25T16:18:26.556Z,101685.53
2023-01-25T16:20:54.951Z,101686.22
2023-01-25T16:23:23.555Z,101684.03
2023-01-25T16:25:53.410Z,101681.59
2023-01-25T16:28:21.852Z,101683.06
2023-01-25T16:30:50.433Z,101684.38
2023-01-25T16:33:20.903Z,101687.25
2023-01-25T16:35:57.684Z,101690.38
2023-01-25T16:38:26.212Z,101689.09
2023-01-25T16:40:58.124Z,101688.22
2023-01-25T16:43:31.695Z,101693.25
2023-01-25T16:46:06.730Z,101690.22
2023-01-25T16:48:35.287Z,101704.56
2023-01-25T16:51:04.101Z,101691.78
2023-01-25T16:53:32.702Z,101697.72
2023-01-25T16:56:02.663Z,101700.41
2023-01-25T16:58:32.277Z,101696.31
2023-01-25T17:01:00.985Z,101699.91
2023-01-25T17:03:29.877Z,101702.66
2023-01-25T17:05:58.408Z,101702.84
2023-01-25T17:08:26.923Z,101699.78
2023-01-25T17:10:57.539Z,101706.22
2023-01-25T17:13:27.529Z,101704.03
2023-01-25T17:15:57.446Z,101706.88
2023-01-25T17:18:25.981Z,101698.78
2023-01-25T17:20:59.313Z,101705.69
2023-01-25T17:23:29.170Z,101709.00
2023-01-25T17:25:57.707Z,101705.75
2023-01-25T17:28:28.611Z,101709.19
2023-01-25T17:30:57.330Z,101705.84
2023-01-25T17:33:26.047Z,101700.03
2023-01-25T17:35:58.495Z,101703.38
2023-01-25T17:38:27.259Z,101711.50
2023-01-25T17:40:56.048Z,101707.50
2023-01-25T17:43:24.668Z,101697.22
2023-01-25T17:45:54.598Z,101702.16
2023-01-25T17:48:23.263Z,101700.00
2023-01-25T17:51:01.737Z,101703.00
2023-01-25T17:53:30.542Z,101707.53
2023-01-25T17:56:03.467Z,101696.34
2023-01-25T17:58:32.813Z,101710.81
2023-01-25T18:01:13.571Z,101703.09
2023-01-25T18:03:43.346Z,101702.81
2023-01-25T18:06:14.130Z,101706.06
2023-01-25T18:08:43.655Z,101708.91
2023-01-25T18:11:15.522Z,101698.78
2023-01-25T18:13:46.395Z,101667.06
2023-01-25T18:16:17.669Z,101705.97
2023-01-25T18:18:47.487Z,101710.75
2023-01-25T18:21:22.230Z,101676.91
2023-01-25T18:23:51.208Z,101714.22
2023-01-25T18:26:22.181Z,101712.94
2023-01-25T18:28:52.154Z,101718.72
2023-01-25T18:31:22.612Z,101713.75
2023-01-25T18:33:51.274Z,101721.25
2023-01-25T18:36:20.460Z,101718.59
2023-01-25T18:38:49.084Z,101714.41
2023-01-25T18:41:17.625Z,101721.56
2023-01-25T18:43:46.205Z,101716.75
2023-01-25T18:46:14.721Z,101715.81
2023-01-25T18:48:47.382Z,101710.69
2023-01-25T18:51:18.063Z,101720.63
2023-01-25T18:53:47.840Z,101710.69
2023-01-25T18:56:19.141Z,101718.84
2023-01-25T18:58:48.416Z,101688.00
2023-01-25T19:01:18.853Z,101716.94
2023-01-25T19:03:49.899Z,101727.88
2023-01-25T19:06:20.223Z,101725.88
2023-01-25T19:08:53.284Z,101722.53
2023-01-25T19:11:25.303Z,101709.84
2023-01-25T19:13:53.860Z,101728.69
2023-01-25T19:16:24.551Z,101723.75
2023-01-25T19:18:56.195Z,101714.75
2023-01-25T19:21:26.193Z,101718.63
2023-01-25T19:23:56.209Z,101724.34
2023-01-25T19:26:26.419Z,101725.56
2023-01-25T19:28:55.719Z,101725.81
2023-01-25T19:31:26.054Z,101719.66
2023-01-25T19:33:59.811Z,101720.81
2023-01-25T19:36:30.467Z,101716.03
2023-01-25T19:38:59.123Z,101725.09
2023-01-25T19:41:29.621Z,101721.75
2023-01-25T19:43:59.426Z,101709.91
2023-01-25T19:46:30.317Z,101708.81
2023-01-25T19:49:02.131Z,101710.66
2023-01-25T19:51:32.718Z,101709.56
2023-01-25T19:54:03.563Z,101703.84
2023-01-25T19:56:34.067Z,101704.41
2023-01-25T19:59:04.557Z,101694.84
2023-01-25T20:01:33.360Z,101704.00
2023-01-25T20:04:04.526Z,101699.56
2023-01-25T20:06:33.757Z,101703.13
2023-01-25T20:09:02.295Z,101699.69
2023-01-25T20:11:32.621Z,101700.63
2023-01-25T20:14:03.209Z,101633.81
2023-01-25T20:16:33.003Z,101697.41
2023-01-25T20:19:03.300Z,101691.31
2023-01-25T20:21:33.790Z,101692.06
2023-01-25T20:24:05.959Z,101691.25
2023-01-25T20:26:36.840Z,101690.81
2023-01-25T20:29:05.834Z,101694.84
2023-01-25T20:31:36.322Z,101657.22
2023-01-25T20:34:09.485Z,101697.63
2023-01-25T20:36:38.682Z,101688.53
2023-01-25T20:39:08.283Z,101686.63
2023-01-25T20:41:37.117Z,101692.16
2023-01-25T20:44:08.782Z,101684.97
2023-01-25T20:46:38.956Z,101669.81
2023-01-25T20:49:11.794Z,101674.09
2023-01-25T20:51:40.285Z,101687.00
2023-01-25T20:54:08.721Z,101677.53
2023-01-25T20:56:37.297Z,101675.03
2023-01-25T20:59:06.273Z,101677.72
2023-01-25T21:01:37.353Z,101677.06
2023-01-25T21:04:09.785Z,101682.84
2023-01-25T21:06:38.892Z,101683.06
2023-01-25T21:09:07.659Z,101673.63
2023-01-25T21:11:36.388Z,101653.31
2023-01-25T21:14:05.072Z,101670.47
2023-01-25T21:16:33.938Z,101674.91
2023-01-25T21:19:07.260Z,101670.72
2023-01-25T21:21:38.663Z,101656.50
2023-01-25T21:24:08.298Z,101672.00
2023-01-25T21:26:38.574Z,101658.91
2023-01-25T21:29:08.188Z,101654.59
2023-01-25T21:31:39.272Z,101654.72
2023-01-25T21:34:09.346Z,101649.38
2023-01-25T21:36:39.594Z,101652.13
2023-01-25T21:39:08.386Z,101661.66
2023-01-25T21:41:36.884Z,101658.56
2023-01-25T21:44:22.770Z,101644.53
2023-01-25T21:49:57.409Z,101633.84
2023-01-25T21:52:27.346Z,101642.22
2023-01-25T21:54:55.807Z,101641.53
2023-01-25T21:57:24.411Z,101637.34
2023-01-25T21:59:54.330Z,101626.09
2023-01-25T22:02:23.057Z,101622.38
2023-01-25T22:04:51.765Z,101627.81
2023-01-25T22:07:20.435Z,101616.38
2023-01-25T22:09:50.579Z,101625.28
2023-01-25T22:12:19.312Z,101630.75
2023-01-25T22:14:47.808Z,101628.56
2023-01-25T22:17:16.363Z,101625.28
2023-01-25T22:19:44.880Z,101623.69
2023-01-25T22:22:13.385Z,101618.56
2023-01-25T22:24:41.851Z,101626.66
2023-01-25T22:27:32.092Z,101630.31
2023-01-25T22:30:00.670Z,101625.16
2023-01-25T22:32:29.228Z,101623.50
2023-01-25T22:34:57.782Z,101622.84
2023-01-25T22:37:27.265Z,101619.88
2023-01-25T22:39:58.612Z,101610.41
2023-01-25T22:42:28.569Z,101602.38
2023-01-25T22:44:57.165Z,101606.53
2023-01-25T22:47:25.636Z,101607.59
2023-01-25T22:49:54.111Z,101604.22
2023-01-25T22:52:23.452Z,101609.31
2023-01-25T22:54:52.011Z,101608.28
2023-01-25T22:57:20.532Z,101608.28
2023-01-25T22:59:50.418Z,101600.88
2023-01-25T23:02:18.912Z,101605.00
2023-01-25T23:04:47.499Z,101605.25
2023-01-25T23:07:18.795Z,101596.53
2023-01-25T23:09:51.701Z,101606.06
2023-01-25T23:12:20.940Z,101609.13
2023-01-25T23:14:54.230Z,101607.41
2023-01-25T23:17:42.741Z,101592.28
2023-01-25T23:20:13.539Z,101593.25
2023-01-25T23:22:42.359Z,101580.50
2023-01-25T23:25:12.256Z,101578.06
2023-01-25T23:27:40.705Z,101579.78
2023-01-25T23:30:12.559Z,101577.16
2023-01-25T23:32:49.349Z,101580.59
2023-01-25T23:35:18.975Z,101574.53
2023-01-25T23:37:48.704Z,101564.25
2023-01-25T23:40:18.008Z,101565.19
2023-01-25T23:42:46.564Z,101555.16
2023-01-25T23:45:16.691Z,101547.41
2023-01-25T23:47:45.221Z,101547.31
2023-01-25T23:50:13.901Z,101545.53
2023-01-25T23:52:43.512Z,101544.81
2023-01-25T23:55:12.335Z,101543.16
2023-01-25T23:57:40.903Z,101545.59
